Time;durP1;ratioP1;P1;durP2;ratioP2;P2;SDS_P1;SDS_P2;PMS_P1;PMS_P2;Temp;Humidity;BMP_temperature;BMP_pressure;BME280_temperature;BME280_humidity;BME280_pressure;Samples;Min_cycle;Max_cycle;Signal;HPM_P1;HPM_P2
2023/12/17 00:00:13;;;;;;;3.10;2.80;;;5.70;86.80;;;;;;5064680;28;20233;-84
2023/12/17 00:02:42;;;;;;;3.33;2.50;;;5.70;86.90;;;;;;5061958;28;20661;-83
2023/12/17 00:05:31;;;;;;;0.70;0.70;;;5.70;87.00;;;;;;5079229;28;20251;-84
2023/12/17 00:08:00;;;;;;;2.17;2.00;;;5.70;87.10;;;;;;5074555;28;20283;-83
2023/12/17 00:10:29;;;;;;;1.70;1.60;;;5.70;87.40;;;;;;5073453;28;20293;-85
2023/12/17 00:12:57;;;;;;;1.57;1.33;;;5.70;87.40;;;;;;5084613;28;20249;-85
2023/12/17 00:15:26;;;;;;;3.50;2.80;;;5.60;87.40;;;;;;5073126;28;20253;-85
2023/12/17 00:17:55;;;;;;;1.37;1.27;;;5.60;87.40;;;;;;5073983;28;20215;-84
2023/12/17 00:20:23;;;;;;;1.27;1.20;;;5.60;87.50;;;;;;5073320;28;20561;-84
2023/12/17 00:22:53;;;;;;;1.33;1.23;;;5.60;87.50;;;;;;5072104;28;20195;-84
2023/12/17 00:25:21;;;;;;;4.73;2.63;;;5.60;87.50;;;;;;5072860;28;20210;-84
2023/12/17 00:27:50;;;;;;;1.10;1.10;;;5.60;87.60;;;;;;5074617;28;20222;-85
2023/12/17 00:30:18;;;;;;;1.27;1.20;;;5.60;87.60;;;;;;5073112;28;20664;-84
2023/12/17 00:32:47;;;;;;;2.07;1.90;;;5.60;87.50;;;;;;5070382;28;20221;-85
2023/12/17 00:35:19;;;;;;;3.53;2.30;;;5.50;87.50;;;;;;5072951;28;20311;-84
2023/12/17 00:37:49;;;;;;;3.37;2.40;;;5.50;88.00;;;;;;5080425;28;20237;-84
2023/12/17 00:40:19;;;;;;;1.20;1.20;;;5.50;88.00;;;;;;5074116;28;20204;-85
2023/12/17 00:42:48;;;;;;;3.53;2.10;;;5.50;88.00;;;;;;5073830;28;20200;-85
2023/12/17 00:45:16;;;;;;;6.10;2.93;;;5.50;88.00;;;;;;5071414;28;20233;-84
2023/12/17 00:47:45;;;;;;;1.70;1.60;;;5.50;88.30;;;;;;5072101;28;20208;-84
2023/12/17 00:50:14;;;;;;;1.60;1.50;;;5.50;88.40;;;;;;5071409;28;20225;-85
2023/12/17 00:52:43;;;;;;;1.43;1.20;;;5.50;88.40;;;;;;5071928;28;20252;-84
2023/12/17 00:55:12;;;;;;;0.50;0.50;;;5.50;88.40;;;;;;5079128;28;20222;-83
2023/12/17 00:57:42;;;;;;;3.27;3.00;;;5.50;88.60;;;;;;5073902;28;20482;-84
2023/12/17 01:00:11;;;;;;;3.35;2.75;;;5.50;88.90;;;;;;5067834;28;20811;-84
2023/12/17 01:02:40;;;;;;;5.40;2.40;;;5.50;89.30;;;;;;5074362;28;20655;-83
2023/12/17 01:05:09;;;;;;;2.50;1.73;;;5.50;89.40;;;;;;5072764;28;20199;-83
2023/12/17 01:07:37;;;;;;;2.03;1.93;;;5.50;89.30;;;;;;5070665;28;20576;-84
2023/12/17 01:10:07;;;;;;;2.93;1.47;;;5.40;89.30;;;;;;5072259;28;20195;-84
2023/12/17 01:12:36;;;;;;;3.43;2.73;;;5.40;89.30;;;;;;5076596;28;20197;-84
2023/12/17 01:15:06;;;;;;;4.40;3.10;;;5.50;89.20;;;;;;5069876;28;20654;-86
2023/12/17 01:17:35;;;;;;;2.67;2.10;;;5.50;89.00;;;;;;5072976;28;20200;-84
2023/12/17 01:20:08;;;;;;;4.30;2.07;;;5.50;89.00;;;;;;5073586;28;20205;-83
2023/12/17 01:22:38;;;;;;;1.37;1.27;;;5.50;88.90;;;;;;5067920;28;20208;-83
2023/12/17 01:25:08;;;;;;;1.77;1.67;;;5.50;88.80;;;;;;5071425;28;20571;-84
2023/12/17 01:27:36;;;;;;;1.03;1.00;;;5.50;88.90;;;;;;5070217;28;20202;-83
2023/12/17 01:30:08;;;;;;;2.10;2.00;;;5.50;88.80;;;;;;5068744;28;20213;-83
2023/12/17 01:32:37;;;;;;;2.03;1.88;;;5.50;88.80;;;;;;5072610;28;20399;-84
2023/12/17 01:35:08;;;;;;;5.00;2.40;;;5.50;88.70;;;;;;5069665;28;20233;-83
2023/12/17 01:37:36;;;;;;;2.73;2.20;;;5.50;88.70;;;;;;5072169;28;20620;-84
2023/12/17 01:40:08;;;;;;;1.80;1.53;;;5.50;88.60;;;;;;5072474;28;20195;-84
2023/12/17 01:42:36;;;;;;;4.17;3.13;;;5.60;88.50;;;;;;5071184;28;20298;-85
2023/12/17 01:45:07;;;;;;;3.10;2.77;;;5.60;88.40;;;;;;5072509;28;20210;-83
2023/12/17 01:47:36;;;;;;;3.10;1.80;;;5.60;88.30;;;;;;5067769;28;20203;-84
2023/12/17 01:50:07;;;;;;;1.70;1.60;;;5.60;88.30;;;;;;5070899;28;20249;-85
2023/12/17 01:52:38;;;;;;;1.17;1.17;;;5.60;88.10;;;;;;5070358;28;21593;-85
2023/12/17 01:55:08;;;;;;;1.90;1.33;;;5.60;88.00;;;;;;5080898;28;20563;-84
2023/12/17 01:57:37;;;;;;;2.57;2.20;;;5.60;87.80;;;;;;5072546;28;20202;-85
2023/12/17 02:00:12;;;;;;;2.23;2.03;;;5.60;87.80;;;;;;5073452;28;20250;-86
2023/12/17 02:02:41;;;;;;;4.03;2.50;;;5.60;87.70;;;;;;5071806;28;20667;-85
2023/12/17 02:05:10;;;;;;;1.53;1.43;;;5.60;88.10;;;;;;5073981;28;20673;-86
2023/12/17 02:07:41;;;;;;;1.63;1.53;;;5.60;88.00;;;;;;5071059;28;20216;-85
2023/12/17 02:10:11;;;;;;;2.07;1.90;;;5.50;88.10;;;;;;5066468;28;20195;-84
2023/12/17 02:12:40;;;;;;;2.07;1.87;;;5.50;88.00;;;;;;5081342;28;20232;-85
2023/12/17 02:15:13;;;;;;;5.27;3.17;;;5.50;88.30;;;;;;5080279;28;20197;-85
2023/12/17 02:17:41;;;;;;;1.90;1.80;;;5.50;88.30;;;;;;5074979;28;20594;-85
2023/12/17 02:20:11;;;;;;;4.20;3.07;;;5.50;88.10;;;;;;5075856;28;20199;-85
2023/12/17 02:22:40;;;;;;;3.93;2.10;;;5.50;88.20;;;;;;5078532;28;20191;-85
2023/12/17 02:25:10;;;;;;;3.27;2.03;;;5.50;88.30;;;;;;5077459;28;20300;-85
2023/12/17 02:27:39;;;;;;;1.77;1.67;;;5.50;88.40;;;;;;5081264;28;20209;-84
2023/12/17 02:30:09;;;;;;;3.27;1.63;;;5.50;88.30;;;;;;5081430;28;20253;-85
2023/12/17 02:32:38;;;;;;;1.80;1.70;;;5.50;88.30;;;;;;5077965;28;20209;-84
2023/12/17 02:35:07;;;;;;;1.67;1.57;;;5.50;88.10;;;;;;5074987;28;20194;-83
2023/12/17 02:37:39;;;;;;;2.93;2.67;;;5.40;88.10;;;;;;5078736;28;20297;-84
2023/12/17 02:40:10;;;;;;;2.97;1.77;;;5.40;88.00;;;;;;5071642;28;20214;-84
2023/12/17 02:42:39;;;;;;;6.60;3.13;;;5.40;88.10;;;;;;5073472;28;20198;-83
2023/12/17 02:45:11;;;;;;;3.50;3.20;;;5.40;88.10;;;;;;5074253;28;20531;-84
2023/12/17 02:47:40;;;;;;;2.33;2.13;;;5.40;88.60;;;;;;5082398;28;20208;-83
2023/12/17 02:50:09;;;;;;;2.17;1.97;;;5.40;88.60;;;;;;5061011;28;20194;-83
2023/12/17 02:52:38;;;;;;;2.97;2.60;;;5.40;88.50;;;;;;5083033;28;20701;-82
2023/12/17 02:55:10;;;;;;;2.83;2.27;;;5.40;88.50;;;;;;5080849;28;20198;-82
2023/12/17 02:57:39;;;;;;;1.70;1.33;;;5.40;88.50;;;;;;5085261;28;20218;-83
2023/12/17 03:00:09;;;;;;;3.20;2.90;;;5.40;88.40;;;;;;5076041;28;20217;-86
2023/12/17 03:02:38;;;;;;;2.80;2.60;;;5.30;88.80;;;;;;5085279;28;20199;-85
2023/12/17 03:05:06;;;;;;;1.33;1.27;;;5.30;88.80;;;;;;5074701;28;20226;-86
2023/12/17 03:07:35;;;;;;;13.33;2.20;;;5.30;89.10;;;;;;5074893;28;20616;-85
2023/12/17 03:10:04;;;;;;;2.07;1.43;;;5.20;89.50;;;;;;5085296;28;20654;-84
2023/12/17 03:12:34;;;;;;;2.77;2.57;;;5.20;89.60;;;;;;5080595;28;20198;-84
2023/12/17 03:15:03;;;;;;;2.90;1.73;;;5.20;89.60;;;;;;5079473;28;20210;-85
2023/12/17 03:17:35;;;;;;;3.13;2.93;;;5.20;89.60;;;;;;5080166;28;20222;-85
2023/12/17 03:20:06;;;;;;;3.33;3.03;;;5.10;90.00;;;;;;5084823;28;20205;-84
2023/12/17 03:22:34;;;;;;;5.50;2.30;;;5.10;90.10;;;;;;5077318;28;20202;-85
2023/12/17 03:25:03;;;;;;;3.40;3.10;;;5.10;90.10;;;;;;5081326;28;20240;-85
2023/12/17 03:27:32;;;;;;;2.87;1.73;;;5.10;90.20;;;;;;5076061;28;20194;-85
2023/12/17 03:30:04;;;;;;;2.87;2.63;;;5.10;90.10;;;;;;5078473;28;20209;-85
2023/12/17 03:32:33;;;;;;;2.30;2.20;;;5.10;90.10;;;;;;5077493;28;20198;-84
2023/12/17 03:35:03;;;;;;;2.73;2.57;;;5.10;90.20;;;;;;5077159;28;20232;-84
2023/12/17 03:37:34;;;;;;;3.67;2.10;;;5.10;90.10;;;;;;5074895;28;20276;-86
2023/12/17 03:40:03;;;;;;;1.03;1.03;;;5.10;90.20;;;;;;5076563;28;20277;-85
2023/12/17 03:42:31;;;;;;;2.60;2.40;;;5.10;90.20;;;;;;5080020;28;20582;-85
2023/12/17 03:45:02;;;;;;;5.70;2.87;;;5.00;90.30;;;;;;5074991;28;20908;-84
2023/12/17 03:47:31;;;;;;;2.87;2.03;;;5.00;90.30;;;;;;5072602;28;20202;-84
2023/12/17 03:50:00;;;;;;;2.20;2.03;;;5.00;90.40;;;;;;5071279;28;22144;-83
2023/12/17 03:52:30;;;;;;;1.97;1.87;;;5.00;90.30;;;;;;5074740;28;20207;-83
2023/12/17 03:55:01;;;;;;;3.37;2.43;;;5.00;90.40;;;;;;5079233;28;20187;-84
2023/12/17 03:57:30;;;;;;;2.17;1.80;;;5.00;90.50;;;;;;5074002;28;20227;-83
2023/12/17 04:00:01;;;;;;;1.33;1.17;;;4.90;90.50;;;;;;5081826;28;20228;-83
2023/12/17 04:02:34;;;;;;;2.17;2.03;;;5.00;90.40;;;;;;5084066;28;20206;-84
2023/12/17 04:05:06;;;;;;;5.50;1.23;;;5.00;90.40;;;;;;5080231;28;20265;-84
2023/12/17 04:07:34;;;;;;;3.97;3.10;;;5.00;90.40;;;;;;5078766;28;20205;-85
2023/12/17 04:10:04;;;;;;;2.37;2.23;;;5.00;90.40;;;;;;5079642;28;20213;-84
2023/12/17 04:12:32;;;;;;;3.73;2.73;;;4.90;90.60;;;;;;5075014;28;20191;-83
2023/12/17 04:15:01;;;;;;;1.93;1.83;;;4.90;90.60;;;;;;5076160;28;20202;-83
2023/12/17 04:17:31;;;;;;;2.00;1.90;;;4.90;90.70;;;;;;5080222;28;20605;-82
2023/12/17 04:20:01;;;;;;;2.97;1.37;;;4.90;90.60;;;;;;5074417;28;20209;-82
2023/12/17 04:22:30;;;;;;;16.70;3.03;;;4.90;90.70;;;;;;5082419;28;20202;-82
2023/12/17 04:24:59;;;;;;;2.77;2.43;;;4.80;90.80;;;;;;5075768;28;20198;-82
2023/12/17 04:27:28;;;;;;;3.53;3.33;;;4.90;90.70;;;;;;5077776;28;20202;-81
2023/12/17 04:29:57;;;;;;;1.73;1.63;;;4.90;90.70;;;;;;5073830;28;20297;-82
2023/12/17 04:32:25;;;;;;;7.03;2.53;;;4.90;90.60;;;;;;5070935;28;20234;-83
2023/12/17 04:34:55;;;;;;;2.50;2.37;;;4.90;90.60;;;;;;5077093;28;20304;-82
2023/12/17 04:37:24;;;;;;;1.43;1.33;;;4.90;90.60;;;;;;5078095;28;20696;-83
2023/12/17 04:39:53;;;;;;;2.53;2.40;;;4.90;90.50;;;;;;5074605;28;20202;-82
2023/12/17 04:42:21;;;;;;;5.90;3.03;;;4.90;90.50;;;;;;5074697;28;20198;-83
2023/12/17 04:44:50;;;;;;;4.03;1.73;;;4.90;90.50;;;;;;5073697;28;20198;-83
2023/12/17 04:47:18;;;;;;;3.70;2.80;;;4.90;90.50;;;;;;5067244;28;20206;-82
2023/12/17 04:49:48;;;;;;;3.23;2.00;;;4.90;90.50;;;;;;5080307;28;20206;-84
2023/12/17 04:52:18;;;;;;;2.43;1.47;;;5.00;90.50;;;;;;5074187;28;20208;-84
2023/12/17 04:54:46;;;;;;;6.70;3.33;;;4.90;90.50;;;;;;5075339;28;20193;-82
2023/12/17 04:57:14;;;;;;;4.70;3.10;;;5.00;90.50;;;;;;5073667;28;20677;-84
2023/12/17 04:59:43;;;;;;;2.37;2.10;;;5.00;90.40;;;;;;5076399;28;20225;-83
2023/12/17 05:02:12;;;;;;;2.67;2.23;;;5.00;90.40;;;;;;5074703;28;20202;-84
2023/12/17 05:04:40;;;;;;;1.50;1.40;;;5.00;90.40;;;;;;5079915;28;20194;-83
2023/12/17 05:07:09;;;;;;;4.70;1.67;;;5.00;90.40;;;;;;5076290;28;20190;-83
2023/12/17 05:09:39;;;;;;;4.00;2.67;;;5.00;90.30;;;;;;5071873;28;20636;-83
2023/12/17 05:12:08;;;;;;;4.00;2.20;;;5.00;90.30;;;;;;5080425;28;20194;-83
2023/12/17 05:14:36;;;;;;;2.07;1.60;;;5.00;90.30;;;;;;5068460;28;20198;-83
2023/12/17 05:17:05;;;;;;;1.77;1.67;;;5.00;90.30;;;;;;5070482;28;20288;-83
2023/12/17 05:19:33;;;;;;;1.80;1.70;;;5.00;90.30;;;;;;5069503;28;20205;-83
2023/12/17 05:22:02;;;;;;;4.60;2.33;;;4.90;90.30;;;;;;5071315;28;20233;-83
2023/12/17 05:24:31;;;;;;;3.97;3.30;;;4.90;90.30;;;;;;5066676;28;20199;-84
2023/12/17 05:27:01;;;;;;;2.87;2.53;;;4.90;90.30;;;;;;5068223;28;20195;-84
2023/12/17 05:29:29;;;;;;;4.07;2.43;;;4.90;90.30;;;;;;5075295;28;20636;-83
2023/12/17 05:31:58;;;;;;;2.57;1.50;;;4.90;90.30;;;;;;5075600;28;20198;-83
2023/12/17 05:34:26;;;;;;;2.50;2.17;;;4.90;90.30;;;;;;5071492;28;20622;-83
2023/12/17 05:36:55;;;;;;;3.22;2.78;;;4.90;90.30;;;;;;5070925;28;20434;-83
2023/12/17 05:39:23;;;;;;;2.33;1.97;;;4.90;90.50;;;;;;5061786;28;20248;-82
2023/12/17 05:41:52;;;;;;;1.67;1.57;;;4.90;90.50;;;;;;5069133;28;20653;-83
2023/12/17 05:44:23;;;;;;;2.30;2.13;;;4.80;90.40;;;;;;5071323;28;20202;-83
2023/12/17 05:46:51;;;;;;;1.80;1.70;;;4.80;90.40;;;;;;5069628;28;20205;-83
2023/12/17 05:49:20;;;;;;;2.73;2.17;;;4.80;90.40;;;;;;5075478;28;20287;-82
2023/12/17 05:51:49;;;;;;;3.13;2.80;;;4.80;90.40;;;;;;5076622;28;20578;-83
2023/12/17 05:54:20;;;;;;;2.37;2.17;;;4.80;90.50;;;;;;5072588;28;20225;-83
2023/12/17 05:56:49;;;;;;;1.13;1.13;;;4.70;90.60;;;;;;5080361;28;20527;-84
2023/12/17 05:59:18;;;;;;;3.33;2.55;;;4.70;90.50;;;;;;5068841;28;20428;-84
2023/12/17 06:01:48;;;;;;;2.23;2.07;;;4.70;90.60;;;;;;5061256;28;20290;-84
2023/12/17 06:04:16;;;;;;;3.43;2.90;;;4.70;90.60;;;;;;5070035;28;20206;-83
2023/12/17 06:06:46;;;;;;;4.60;2.87;;;4.60;90.70;;;;;;5071635;28;20565;-83
2023/12/17 06:09:16;;;;;;;1.87;1.77;;;4.70;90.60;;;;;;5069632;28;20301;-82
2023/12/17 06:11:45;;;;;;;2.88;2.65;;;4.70;90.60;;;;;;5065409;28;20446;-82
2023/12/17 06:14:13;;;;;;;2.13;1.93;;;4.60;90.80;;;;;;5079284;28;20194;-82
2023/12/17 06:16:42;;;;;;;7.10;1.70;;;4.60;90.90;;;;;;5072875;28;20203;-82
2023/12/17 06:19:13;;;;;;;1.10;1.10;;;4.60;90.90;;;;;;5072669;28;20237;-83
2023/12/17 06:21:41;;;;;;;9.40;2.40;;;4.60;90.90;;;;;;5077625;28;20201;-84
2023/12/17 06:24:10;;;;;;;4.27;2.20;;;4.60;90.90;;;;;;5076447;28;20202;-81
2023/12/17 06:26:38;;;;;;;1.80;1.70;;;4.60;91.00;;;;;;5072887;28;20252;-82
2023/12/17 06:29:12;;;;;;;6.50;3.33;;;4.60;91.00;;;;;;5075766;28;20197;-82
2023/12/17 06:31:42;;;;;;;0.90;0.90;;;4.60;91.10;;;;;;5077037;28;20201;-82
2023/12/17 06:34:14;;;;;;;3.07;2.70;;;4.60;91.10;;;;;;5069132;28;20204;-84
2023/12/17 06:36:43;;;;;;;4.83;1.77;;;4.70;91.10;;;;;;5072417;28;20583;-82
2023/12/17 06:39:11;;;;;;;2.43;2.23;;;4.70;91.10;;;;;;5082888;28;20556;-83
2023/12/17 06:41:44;;;;;;;1.60;1.50;;;4.70;91.20;;;;;;5077887;28;20316;-83
2023/12/17 06:44:13;;;;;;;1.77;1.67;;;4.80;91.20;;;;;;5077947;28;20696;-82
2023/12/17 06:46:42;;;;;;;2.20;2.03;;;4.80;91.30;;;;;;5077528;28;20646;-84
2023/12/17 06:49:12;;;;;;;4.10;2.40;;;4.80;91.30;;;;;;5068482;28;20205;-82
2023/12/17 06:51:41;;;;;;;1.73;1.60;;;4.80;91.20;;;;;;5072207;28;20285;-82
2023/12/17 06:54:10;;;;;;;1.90;1.73;;;4.80;91.20;;;;;;5069545;28;20208;-83
2023/12/17 06:56:39;;;;;;;4.07;2.63;;;4.80;91.30;;;;;;5085100;28;20252;-84
2023/12/17 06:59:07;;;;;;;4.43;2.30;;;4.80;91.30;;;;;;5083374;28;20241;-83
2023/12/17 07:01:36;;;;;;;3.30;1.83;;;4.80;91.30;;;;;;5076538;28;20578;-83
2023/12/17 07:04:05;;;;;;;4.37;3.60;;;4.80;91.30;;;;;;5076940;28;20581;-82
2023/12/17 07:06:36;;;;;;;2.00;1.90;;;4.80;91.40;;;;;;5079894;28;20595;-83
2023/12/17 07:09:05;;;;;;;6.00;2.60;;;4.80;91.40;;;;;;5073439;28;20196;-83
2023/12/17 07:11:33;;;;;;;2.57;2.07;;;4.80;91.50;;;;;;5074074;28;20260;-83
2023/12/17 07:14:02;;;;;;;4.70;3.30;;;4.70;91.60;;;;;;5074831;28;20199;-83
2023/12/17 07:16:30;;;;;;;5.80;2.93;;;4.80;91.70;;;;;;5075311;28;20198;-88
2023/12/17 07:18:59;;;;;;;1.90;1.80;;;4.80;91.70;;;;;;5073795;28;20695;-84
2023/12/17 07:21:28;;;;;;;2.83;2.63;;;4.80;91.80;;;;;;5078973;28;20633;-92
2023/12/17 07:23:58;;;;;;;1.70;1.60;;;4.90;91.80;;;;;;5073434;28;20206;-87
2023/12/17 07:26:27;;;;;;;2.90;2.23;;;4.80;91.80;;;;;;5076752;28;20531;-83
2023/12/17 07:28:56;;;;;;;2.63;1.83;;;4.90;92.00;;;;;;5077758;28;20244;-87
2023/12/17 07:31:24;;;;;;;2.23;2.13;;;4.90;92.00;;;;;;5075626;28;20264;-85
2023/12/17 07:33:53;;;;;;;2.30;2.00;;;5.00;92.00;;;;;;5068963;28;20282;-88
2023/12/17 07:36:21;;;;;;;3.63;2.47;;;5.10;91.90;;;;;;5069641;28;20196;-83
2023/12/17 07:38:50;;;;;;;2.70;2.50;;;5.10;91.70;;;;;;5071624;28;20708;-85
2023/12/17 07:41:20;;;;;;;2.73;2.33;;;5.10;91.70;;;;;;5073447;28;20646;-85
2023/12/17 07:43:49;;;;;;;2.73;2.47;;;5.00;91.60;;;;;;5072527;28;20204;-84
2023/12/17 07:46:18;;;;;;;3.70;2.53;;;5.00;91.70;;;;;;5069178;28;20197;-84
2023/12/17 07:48:46;;;;;;;3.23;2.43;;;5.00;91.80;;;;;;5069154;28;20207;-87
2023/12/17 07:51:15;;;;;;;4.03;3.63;;;4.90;91.90;;;;;;5074121;28;20204;-84
2023/12/17 07:53:44;;;;;;;4.33;3.67;;;4.90;92.00;;;;;;5069134;28;20226;-84
2023/12/17 07:56:13;;;;;;;6.73;3.27;;;4.90;92.10;;;;;;5072592;28;20526;-84
2023/12/17 07:58:43;;;;;;;2.60;2.40;;;4.80;92.30;;;;;;5067250;28;20230;-82
2023/12/17 08:01:11;;;;;;;5.10;3.43;;;4.90;92.30;;;;;;5080457;28;20212;-84
2023/12/17 08:03:40;;;;;;;1.63;1.50;;;4.90;92.40;;;;;;5077791;28;20276;-83
2023/12/17 08:06:09;;;;;;;1.10;1.10;;;4.90;92.40;;;;;;5083639;28;20203;-84
2023/12/17 08:08:38;;;;;;;4.30;3.13;;;4.90;92.40;;;;;;5070807;28;20206;-84
2023/12/17 08:11:11;;;;;;;6.33;2.53;;;4.90;92.50;;;;;;5065284;28;20198;-82
2023/12/17 08:13:44;;;;;;;1.57;1.47;;;4.80;92.50;;;;;;5073267;28;20190;-84
2023/12/17 08:16:13;;;;;;;2.47;2.27;;;4.80;92.60;;;;;;5074674;28;20665;-86
2023/12/17 08:18:42;;;;;;;3.77;2.03;;;4.80;92.60;;;;;;5071721;28;20732;-83
2023/12/17 08:21:11;;;;;;;2.60;2.40;;;4.90;92.60;;;;;;5078714;28;20197;-83
2023/12/17 08:23:40;;;;;;;0.80;0.80;;;4.90;92.50;;;;;;5075193;28;20214;-85
2023/12/17 08:26:11;;;;;;;2.03;1.93;;;4.90;92.50;;;;;;5073093;28;20198;-85
2023/12/17 08:28:39;;;;;;;3.10;2.87;;;5.10;92.50;;;;;;5066414;28;20207;-86
2023/12/17 08:31:09;;;;;;;2.23;2.13;;;5.10;92.40;;;;;;5070795;28;20206;-85
2023/12/17 08:33:38;;;;;;;6.83;3.40;;;5.20;92.20;;;;;;5071355;28;20230;-84
2023/12/17 08:36:09;;;;;;;5.32;2.58;;;5.30;92.20;;;;;;5072590;28;20428;-83
2023/12/17 08:38:37;;;;;;;1.63;1.53;;;5.30;92.10;;;;;;5064836;28;20210;-85
2023/12/17 08:41:07;;;;;;;2.40;2.20;;;5.40;92.20;;;;;;5062963;28;20226;-85
2023/12/17 08:43:35;;;;;;;1.50;1.40;;;5.50;92.10;;;;;;5065634;28;20206;-84
2023/12/17 08:46:04;;;;;;;2.37;1.63;;;5.60;92.10;;;;;;5064498;28;20743;-83
2023/12/17 08:48:34;;;;;;;2.83;2.53;;;5.60;92.00;;;;;;5074383;28;20192;-82
2023/12/17 08:51:03;;;;;;;3.27;2.27;;;5.70;91.90;;;;;;5064147;28;20197;-85
2023/12/17 08:53:32;;;;;;;2.13;2.00;;;5.80;91.90;;;;;;5073811;28;20204;-85
2023/12/17 08:56:02;;;;;;;4.37;3.20;;;5.80;91.60;;;;;;5066710;28;20242;-84
2023/12/17 08:58:31;;;;;;;3.67;2.73;;;5.80;91.50;;;;;;5079994;28;20264;-83
2023/12/17 09:01:01;;;;;;;3.10;2.40;;;5.80;91.30;;;;;;5065592;28;20234;-83
2023/12/17 09:03:30;;;;;;;2.37;2.17;;;5.80;91.40;;;;;;5075628;28;20203;-85
2023/12/17 09:06:02;;;;;;;2.93;2.50;;;5.80;91.50;;;;;;5070342;28;20280;-86
2023/12/17 09:08:30;;;;;;;1.20;1.10;;;5.90;91.50;;;;;;5066391;28;20203;-87
2023/12/17 09:10:59;;;;;;;2.20;2.00;;;5.90;91.60;;;;;;5070770;28;20210;-83
2023/12/17 09:13:27;;;;;;;3.60;2.13;;;6.00;91.50;;;;;;5066793;28;20216;-83
2023/12/17 09:15:56;;;;;;;1.40;1.27;;;6.00;91.40;;;;;;5070204;28;20210;-86
2023/12/17 09:18:24;;;;;;;3.60;2.23;;;6.10;91.40;;;;;;5077383;28;20646;-83
2023/12/17 09:20:53;;;;;;;1.53;1.03;;;6.10;91.40;;;;;;5075719;28;20250;-84
2023/12/17 09:23:24;;;;;;;7.43;2.40;;;6.20;91.20;;;;;;5067513;28;20255;-86
2023/12/17 09:25:52;;;;;;;3.30;2.60;;;6.20;91.20;;;;;;5073915;28;20205;-85
2023/12/17 09:28:21;;;;;;;3.97;1.97;;;6.20;91.20;;;;;;5078288;28;20200;-86
2023/12/17 09:30:49;;;;;;;3.03;2.63;;;6.10;91.10;;;;;;5075548;28;20216;-85
2023/12/17 09:33:21;;;;;;;2.90;2.30;;;6.20;91.20;;;;;;5076121;28;20202;-85
2023/12/17 09:35:51;;;;;;;1.70;1.37;;;6.20;91.20;;;;;;5076998;28;20216;-85
2023/12/17 09:38:19;;;;;;;4.47;2.23;;;6.10;90.90;;;;;;5080441;28;20245;-86
2023/12/17 09:40:50;;;;;;;4.37;2.07;;;6.10;90.90;;;;;;5086118;28;20225;-85
2023/12/17 09:43:20;;;;;;;1.88;1.70;;;6.20;91.00;;;;;;5072703;28;20451;-85
2023/12/17 09:45:50;;;;;;;1.43;1.33;;;6.20;91.00;;;;;;5073646;28;20216;-85
2023/12/17 09:48:21;;;;;;;2.00;1.90;;;6.10;90.70;;;;;;5068114;28;20554;-84
2023/12/17 09:50:50;;;;;;;1.67;1.57;;;6.20;90.90;;;;;;5069584;28;20212;-85
2023/12/17 09:53:18;;;;;;;2.83;2.40;;;6.20;90.70;;;;;;5077055;28;20214;-85
2023/12/17 09:55:47;;;;;;;5.83;2.67;;;6.10;90.70;;;;;;5084627;28;20203;-85
2023/12/17 09:58:17;;;;;;;3.43;3.13;;;6.10;90.70;;;;;;5077150;28;20197;-85
2023/12/17 10:00:48;;;;;;;2.20;2.07;;;6.10;90.80;;;;;;5075669;28;20221;-85
2023/12/17 10:03:17;;;;;;;1.63;1.47;;;6.20;90.80;;;;;;5083737;28;20201;-87
2023/12/17 10:05:51;;;;;;;1.67;1.10;;;6.10;90.70;;;;;;5077085;28;20233;-87
2023/12/17 10:08:21;;;;;;;2.07;1.70;;;6.10;90.70;;;;;;5079188;28;20209;-85
2023/12/17 10:10:50;;;;;;;3.10;2.63;;;6.10;90.70;;;;;;5069797;28;20197;-84
2023/12/17 10:13:20;;;;;;;3.97;3.57;;;6.10;90.80;;;;;;5070080;28;20666;-84
2023/12/17 10:15:49;;;;;;;1.90;1.77;;;6.20;90.90;;;;;;5063836;28;20521;-85
2023/12/17 10:18:18;;;;;;;1.27;1.23;;;6.30;90.90;;;;;;5074852;28;20209;-86
2023/12/17 10:20:48;;;;;;;2.53;1.87;;;6.30;90.70;;;;;;5074749;28;20278;-86
2023/12/17 10:23:17;;;;;;;10.57;3.50;;;6.30;90.60;;;;;;5079124;28;20206;-87
2023/12/17 10:25:46;;;;;;;2.20;2.00;;;6.40;90.70;;;;;;5082443;28;20205;-87
2023/12/17 10:28:14;;;;;;;5.27;3.60;;;6.50;90.70;;;;;;5084671;28;20195;-86
2023/12/17 10:30:47;;;;;;;1.83;1.53;;;6.50;90.70;;;;;;5069065;28;20687;-86
2023/12/17 10:33:26;;;;;;;5.07;2.80;;;6.60;90.60;;;;;;5081607;28;20198;-85
2023/12/17 10:35:55;;;;;;;1.07;1.07;;;6.60;90.00;;;;;;5075864;28;20673;-88
2023/12/17 10:38:24;;;;;;;4.73;3.00;;;6.60;89.40;;;;;;5084181;28;20182;-85
2023/12/17 10:40:53;;;;;;;7.63;2.10;;;6.60;89.20;;;;;;5088951;28;20248;-88
2023/12/17 10:43:23;;;;;;;2.43;1.43;;;6.80;89.20;;;;;;5085616;28;20201;-88
2023/12/17 10:45:55;;;;;;;2.43;2.07;;;6.80;89.30;;;;;;5074824;28;20194;-88
2023/12/17 10:48:23;;;;;;;2.87;2.67;;;6.90;88.20;;;;;;5078812;28;20204;-88
2023/12/17 10:51:00;;;;;;;3.90;3.60;;;6.90;87.90;;;;;;5076555;28;20194;-87
2023/12/17 10:53:28;;;;;;;1.97;1.87;;;7.00;87.90;;;;;;5072603;28;20226;-86
2023/12/17 10:55:57;;;;;;;2.00;1.83;;;7.00;87.60;;;;;;5082646;28;20198;-85
2023/12/17 10:58:27;;;;;;;3.67;3.37;;;7.00;87.50;;;;;;5079680;28;20230;-90
2023/12/17 11:00:57;;;;;;;3.80;3.40;;;7.00;87.70;;;;;;5077845;28;20222;-87
2023/12/17 11:03:27;;;;;;;2.77;2.23;;;7.10;87.90;;;;;;5078848;28;20190;-89
2023/12/17 11:05:57;;;;;;;4.33;1.70;;;7.10;87.90;;;;;;5081270;28;20213;-89
2023/12/17 11:08:28;;;;;;;5.40;3.43;;;7.00;87.70;;;;;;5083713;28;20672;-89
2023/12/17 11:10:58;;;;;;;2.90;2.60;;;7.00;87.70;;;;;;5082408;28;20259;-87
2023/12/17 11:13:40;;;;;;;1.47;1.23;;;7.00;87.90;;;;;;5072895;28;20210;-87
2023/12/17 11:16:22;;;;;;;1.87;1.77;;;7.00;87.90;;;;;;5070763;28;20560;-85
2023/12/17 11:18:51;;;;;;;5.07;4.20;;;7.10;88.20;;;;;;5074936;28;20559;-88
2023/12/17 11:21:20;;;;;;;1.37;1.27;;;7.10;87.60;;;;;;5080074;28;20495;-85
2023/12/17 11:23:51;;;;;;;2.53;2.13;;;7.00;87.50;;;;;;5074412;28;20439;-85
2023/12/17 11:26:21;;;;;;;5.73;2.70;;;7.00;87.30;;;;;;5082015;28;20201;-84
2023/12/17 11:28:50;;;;;;;1.93;1.83;;;7.10;87.60;;;;;;5079115;28;20204;-88
2023/12/17 11:31:20;;;;;;;2.50;2.10;;;7.00;87.50;;;;;;5075795;28;20190;-88
2023/12/17 11:33:51;;;;;;;5.17;1.43;;;7.10;87.60;;;;;;5074119;28;20213;-85
2023/12/17 11:36:22;;;;;;;1.37;1.30;;;7.10;87.70;;;;;;5070492;28;20195;-85
2023/12/17 11:38:52;;;;;;;1.03;1.03;;;7.10;87.60;;;;;;5070998;28;20190;-84
2023/12/17 11:41:20;;;;;;;2.07;1.63;;;7.10;87.20;;;;;;5075775;28;20222;-85
2023/12/17 11:43:49;;;;;;;4.50;2.37;;;7.00;87.20;;;;;;5073608;28;20205;-87
2023/12/17 11:46:18;;;;;;;9.10;2.33;;;7.00;87.10;;;;;;5075427;28;20226;-86
2023/12/17 11:48:48;;;;;;;3.47;2.53;;;7.10;87.20;;;;;;5071903;28;20203;-83
2023/12/17 11:51:26;;;;;;;5.70;2.87;;;7.10;87.20;;;;;;5078422;28;20194;-84
2023/12/17 11:53:54;;;;;;;1.67;1.57;;;7.10;87.00;;;;;;5068349;28;20209;-86
2023/12/17 11:56:30;;;;;;;3.30;2.37;;;7.20;87.30;;;;;;5074244;28;20647;-85
2023/12/17 11:58:59;;;;;;;1.87;1.77;;;7.20;86.80;;;;;;5078476;28;20221;-88
2023/12/17 12:01:27;;;;;;;2.00;1.50;;;7.30;86.50;;;;;;5074824;28;20230;-87
2023/12/17 12:03:59;;;;;;;2.70;2.50;;;7.20;86.50;;;;;;5073481;28;20191;-83
2023/12/17 12:06:29;;;;;;;2.10;1.90;;;7.30;86.90;;;;;;5079937;28;20198;-86
2023/12/17 12:08:59;;;;;;;2.50;2.10;;;7.20;86.90;;;;;;5075598;28;20586;-88
2023/12/17 12:11:33;;;;;;;4.27;2.90;;;7.20;86.70;;;;;;5067915;28;20281;-84
2023/12/17 12:14:02;;;;;;;2.60;2.33;;;7.20;86.80;;;;;;5084941;28;20202;-85
2023/12/17 12:16:41;;;;;;;5.70;2.77;;;7.10;86.70;;;;;;5083360;28;20194;-86
2023/12/17 12:19:11;;;;;;;8.77;2.67;;;7.10;87.50;;;;;;5061731;28;20556;-88
2023/12/17 12:21:51;;;;;;;2.73;1.57;;;7.00;86.90;;;;;;5073177;28;20222;-87
2023/12/17 12:24:21;;;;;;;7.50;2.00;;;7.00;88.00;;;;;;5078117;28;20718;-86
2023/12/17 12:26:50;;;;;;;2.47;2.27;;;7.10;87.40;;;;;;5074203;28;20242;-88
2023/12/17 12:29:19;;;;;;;3.97;3.33;;;7.00;87.50;;;;;;5072699;28;20198;-84
2023/12/17 12:31:52;;;;;;;5.20;2.57;;;7.00;87.70;;;;;;5075736;28;20262;-88
2023/12/17 12:34:34;;;;;;;3.57;3.13;;;7.10;87.90;;;;;;5082715;28;20202;-88
2023/12/17 12:37:03;;;;;;;2.77;2.57;;;7.20;87.90;;;;;;5075183;28;20202;-89
2023/12/17 12:39:47;;;;;;;5.30;2.77;;;7.20;87.70;;;;;;5077545;28;20662;-87
2023/12/17 12:42:31;;;;;;;5.17;1.83;;;7.20;87.60;;;;;;5065131;28;20685;-88
2023/12/17 12:45:00;;;;;;;3.77;2.23;;;7.30;87.50;;;;;;5077811;28;20214;-87
2023/12/17 12:47:29;;;;;;;3.33;2.97;;;7.20;87.50;;;;;;5072780;28;20206;-88
2023/12/17 12:49:59;;;;;;;3.50;2.33;;;7.20;87.50;;;;;;5077806;28;20198;-88
2023/12/17 12:52:28;;;;;;;2.63;2.20;;;7.10;87.50;;;;;;5080009;28;20201;-87
2023/12/17 12:54:57;;;;;;;2.50;2.30;;;7.00;87.60;;;;;;5067690;28;20210;-87
2023/12/17 12:57:25;;;;;;;1.87;1.63;;;7.00;87.60;;;;;;5074186;28;20199;-86
2023/12/17 12:59:54;;;;;;;2.23;2.03;;;6.90;87.60;;;;;;5077166;28;20227;-86
2023/12/17 13:02:22;;;;;;;4.70;2.40;;;6.90;87.90;;;;;;5071012;28;20217;-88
2023/12/17 13:04:51;;;;;;;6.40;2.17;;;6.90;88.00;;;;;;5073868;28;20572;-87
2023/12/17 13:07:21;;;;;;;3.13;2.73;;;7.00;87.90;;;;;;5073701;28;20229;-88
2023/12/17 13:09:50;;;;;;;3.23;2.23;;;7.10;88.10;;;;;;5073739;28;20206;-86